sensor_id;sensor_type;location;lat;lon;timestamp;P1;durP1;ratioP1;P2;durP2;ratioP2
54883;SDS011;40776;52.880;6.016;2024-02-14T00:00:34;2.72;;;1.70;;
54883;SDS011;40776;52.880;6.016;2024-02-14T00:03:00;3.47;;;1.90;;
54883;SDS011;40776;52.880;6.016;2024-02-14T00:05:26;3.03;;;2.00;;
54883;SDS011;40776;52.880;6.016;2024-02-14T00:07:53;2.17;;;1.50;;
54883;SDS011;40776;52.880;6.016;2024-02-14T00:10:20;3.42;;;1.60;;
54883;SDS011;40776;52.880;6.016;2024-02-14T00:12:46;3.47;;;2.15;;
54883;SDS011;40776;52.880;6.016;2024-02-14T00:15:13;4.20;;;2.38;;
54883;SDS011;40776;52.880;6.016;2024-02-14T00:17:41;3.63;;;1.80;;
54883;SDS011;40776;52.880;6.016;2024-02-14T00:20:08;2.40;;;1.52;;
54883;SDS011;40776;52.880;6.016;2024-02-14T00:22:37;3.35;;;1.80;;
54883;SDS011;40776;52.880;6.016;2024-02-14T00:25:03;3.33;;;1.60;;
54883;SDS011;40776;52.880;6.016;2024-02-14T00:27:29;2.80;;;1.70;;
54883;SDS011;40776;52.880;6.016;2024-02-14T00:29:55;3.42;;;2.00;;
54883;SDS011;40776;52.880;6.016;2024-02-14T00:32:21;3.17;;;1.67;;
54883;SDS011;40776;52.880;6.016;2024-02-14T00:34:47;3.65;;;1.88;;
54883;SDS011;40776;52.880;6.016;2024-02-14T00:37:15;2.92;;;1.90;;
54883;SDS011;40776;52.880;6.016;2024-02-14T00:39:41;5.97;;;1.70;;
54883;SDS011;40776;52.880;6.016;2024-02-14T00:42:07;3.28;;;1.77;;
54883;SDS011;40776;52.880;6.016;2024-02-14T00:44:33;3.08;;;1.90;;
54883;SDS011;40776;52.880;6.016;2024-02-14T00:46:59;3.22;;;2.00;;
54883;SDS011;40776;52.880;6.016;2024-02-14T00:49:26;2.30;;;1.60;;
54883;SDS011;40776;52.880;6.016;2024-02-14T00:51:52;3.28;;;1.70;;
54883;SDS011;40776;52.880;6.016;2024-02-14T00:54:18;3.92;;;2.00;;
54883;SDS011;40776;52.880;6.016;2024-02-14T00:56:44;3.20;;;1.92;;
54883;SDS011;40776;52.880;6.016;2024-02-14T00:59:10;2.72;;;1.75;;
54883;SDS011;40776;52.880;6.016;2024-02-14T01:01:36;2.58;;;1.77;;
54883;SDS011;40776;52.880;6.016;2024-02-14T01:04:02;2.60;;;1.80;;
54883;SDS011;40776;52.880;6.016;2024-02-14T01:06:29;2.90;;;1.90;;
54883;SDS011;40776;52.880;6.016;2024-02-14T01:08:56;2.42;;;1.63;;
54883;SDS011;40776;52.880;6.016;2024-02-14T01:11:22;2.97;;;1.80;;
54883;SDS011;40776;52.880;6.016;2024-02-14T01:13:48;3.20;;;1.65;;
54883;SDS011;40776;52.880;6.016;2024-02-14T01:16:14;3.15;;;1.83;;
54883;SDS011;40776;52.880;6.016;2024-02-14T01:18:40;2.85;;;1.63;;
54883;SDS011;40776;52.880;6.016;2024-02-14T01:21:06;2.33;;;1.45;;
54883;SDS011;40776;52.880;6.016;2024-02-14T01:23:32;2.78;;;1.60;;
54883;SDS011;40776;52.880;6.016;2024-02-14T01:25:58;3.45;;;1.75;;
54883;SDS011;40776;52.880;6.016;2024-02-14T01:28:27;2.25;;;1.70;;
54883;SDS011;40776;52.880;6.016;2024-02-14T01:30:53;2.88;;;1.85;;
54883;SDS011;40776;52.880;6.016;2024-02-14T01:33:21;2.92;;;1.83;;
54883;SDS011;40776;52.880;6.016;2024-02-14T01:35:47;2.40;;;1.38;;
54883;SDS011;40776;52.880;6.016;2024-02-14T01:38:13;2.63;;;1.55;;
54883;SDS011;40776;52.880;6.016;2024-02-14T01:40:42;2.83;;;1.90;;
54883;SDS011;40776;52.880;6.016;2024-02-14T01:43:09;2.43;;;1.30;;
54883;SDS011;40776;52.880;6.016;2024-02-14T01:45:35;2.13;;;1.48;;
54883;SDS011;40776;52.880;6.016;2024-02-14T01:48:01;2.42;;;1.42;;
54883;SDS011;40776;52.880;6.016;2024-02-14T01:50:28;2.72;;;1.90;;
54883;SDS011;40776;52.880;6.016;2024-02-14T01:52:55;2.83;;;1.55;;
54883;SDS011;40776;52.880;6.016;2024-02-14T01:55:21;2.38;;;1.50;;
54883;SDS011;40776;52.880;6.016;2024-02-14T01:57:48;2.38;;;1.48;;
54883;SDS011;40776;52.880;6.016;2024-02-14T02:00:14;3.30;;;1.40;;
54883;SDS011;40776;52.880;6.016;2024-02-14T02:02:43;2.13;;;1.45;;
54883;SDS011;40776;52.880;6.016;2024-02-14T02:05:09;3.78;;;1.60;;
54883;SDS011;40776;52.880;6.016;2024-02-14T02:07:35;2.47;;;1.50;;
54883;SDS011;40776;52.880;6.016;2024-02-14T02:10:05;2.45;;;1.52;;
54883;SDS011;40776;52.880;6.016;2024-02-14T02:12:31;2.20;;;1.40;;
54883;SDS011;40776;52.880;6.016;2024-02-14T02:14:57;2.90;;;1.67;;
54883;SDS011;40776;52.880;6.016;2024-02-14T02:17:23;2.65;;;1.48;;
54883;SDS011;40776;52.880;6.016;2024-02-14T02:19:53;2.13;;;1.23;;
54883;SDS011;40776;52.880;6.016;2024-02-14T02:22:20;2.47;;;1.90;;
54883;SDS011;40776;52.880;6.016;2024-02-14T02:24:46;2.70;;;1.67;;
54883;SDS011;40776;52.880;6.016;2024-02-14T02:27:12;3.42;;;1.48;;
54883;SDS011;40776;52.880;6.016;2024-02-14T02:29:41;2.42;;;1.50;;
54883;SDS011;40776;52.880;6.016;2024-02-14T02:32:07;2.50;;;1.50;;
54883;SDS011;40776;52.880;6.016;2024-02-14T02:34:35;1.95;;;1.35;;
54883;SDS011;40776;52.880;6.016;2024-02-14T02:37:04;3.47;;;1.70;;
54883;SDS011;40776;52.880;6.016;2024-02-14T02:39:32;2.33;;;1.50;;
54883;SDS011;40776;52.880;6.016;2024-02-14T02:42:00;2.20;;;1.40;;
54883;SDS011;40776;52.880;6.016;2024-02-14T02:44:27;2.75;;;1.80;;
54883;SDS011;40776;52.880;6.016;2024-02-14T02:46:53;2.60;;;1.60;;
54883;SDS011;40776;52.880;6.016;2024-02-14T02:49:20;2.90;;;1.73;;
54883;SDS011;40776;52.880;6.016;2024-02-14T02:51:46;2.30;;;1.60;;
54883;SDS011;40776;52.880;6.016;2024-02-14T02:54:13;2.33;;;1.50;;
54883;SDS011;40776;52.880;6.016;2024-02-14T02:56:39;2.10;;;1.52;;
54883;SDS011;40776;52.880;6.016;2024-02-14T02:59:06;2.85;;;1.90;;
54883;SDS011;40776;52.880;6.016;2024-02-14T03:01:36;4.95;;;1.70;;
54883;SDS011;40776;52.880;6.016;2024-02-14T03:04:02;3.20;;;1.67;;
54883;SDS011;40776;52.880;6.016;2024-02-14T03:06:28;2.65;;;1.63;;
54883;SDS011;40776;52.880;6.016;2024-02-14T03:08:54;2.40;;;1.80;;
54883;SDS011;40776;52.880;6.016;2024-02-14T03:11:22;2.35;;;1.70;;
54883;SDS011;40776;52.880;6.016;2024-02-14T03:13:48;2.65;;;1.90;;
54883;SDS011;40776;52.880;6.016;2024-02-14T03:16:15;2.95;;;1.90;;
54883;SDS011;40776;52.880;6.016;2024-02-14T03:18:42;3.22;;;2.10;;
54883;SDS011;40776;52.880;6.016;2024-02-14T03:21:08;2.20;;;1.58;;
54883;SDS011;40776;52.880;6.016;2024-02-14T03:23:34;2.70;;;1.80;;
54883;SDS011;40776;52.880;6.016;2024-02-14T03:26:00;2.25;;;1.85;;
54883;SDS011;40776;52.880;6.016;2024-02-14T03:28:27;3.55;;;1.83;;
54883;SDS011;40776;52.880;6.016;2024-02-14T03:30:54;2.53;;;1.88;;
54883;SDS011;40776;52.880;6.016;2024-02-14T03:33:22;2.50;;;1.60;;
54883;SDS011;40776;52.880;6.016;2024-02-14T03:35:48;2.40;;;1.58;;
54883;SDS011;40776;52.880;6.016;2024-02-14T03:38:23;2.95;;;2.05;;
54883;SDS011;40776;52.880;6.016;2024-02-14T03:40:50;3.17;;;2.20;;
54883;SDS011;40776;52.880;6.016;2024-02-14T03:43:16;2.40;;;1.70;;
54883;SDS011;40776;52.880;6.016;2024-02-14T03:45:42;2.88;;;2.17;;
54883;SDS011;40776;52.880;6.016;2024-02-14T03:48:08;3.13;;;1.85;;
54883;SDS011;40776;52.880;6.016;2024-02-14T03:50:38;2.53;;;2.03;;
54883;SDS011;40776;52.880;6.016;2024-02-14T03:53:04;3.00;;;2.10;;
54883;SDS011;40776;52.880;6.016;2024-02-14T03:55:30;2.90;;;2.22;;
54883;SDS011;40776;52.880;6.016;2024-02-14T03:57:56;3.05;;;2.13;;
54883;SDS011;40776;52.880;6.016;2024-02-14T04:00:22;2.83;;;2.00;;
54883;SDS011;40776;52.880;6.016;2024-02-14T04:02:48;2.40;;;2.00;;
54883;SDS011;40776;52.880;6.016;2024-02-14T04:05:18;3.65;;;2.50;;
54883;SDS011;40776;52.880;6.016;2024-02-14T04:07:44;2.83;;;2.25;;
54883;SDS011;40776;52.880;6.016;2024-02-14T04:10:14;3.63;;;2.42;;
54883;SDS011;40776;52.880;6.016;2024-02-14T04:12:40;2.63;;;2.08;;
54883;SDS011;40776;52.880;6.016;2024-02-14T04:15:06;3.35;;;2.25;;
54883;SDS011;40776;52.880;6.016;2024-02-14T04:17:32;3.95;;;2.70;;
54883;SDS011;40776;52.880;6.016;2024-02-14T04:19:58;3.20;;;2.58;;
54883;SDS011;40776;52.880;6.016;2024-02-14T04:22:24;3.22;;;2.35;;
54883;SDS011;40776;52.880;6.016;2024-02-14T04:24:50;2.63;;;2.15;;
54883;SDS011;40776;52.880;6.016;2024-02-14T04:27:17;3.05;;;2.38;;
54883;SDS011;40776;52.880;6.016;2024-02-14T04:29:46;3.40;;;2.40;;
54883;SDS011;40776;52.880;6.016;2024-02-14T04:32:12;3.10;;;2.25;;
54883;SDS011;40776;52.880;6.016;2024-02-14T04:34:39;4.05;;;2.53;;
54883;SDS011;40776;52.880;6.016;2024-02-14T04:37:05;2.50;;;2.10;;
54883;SDS011;40776;52.880;6.016;2024-02-14T04:39:38;3.28;;;2.67;;
54883;SDS011;40776;52.880;6.016;2024-02-14T04:42:04;3.03;;;2.40;;
54883;SDS011;40776;52.880;6.016;2024-02-14T04:44:31;2.55;;;2.20;;
54883;SDS011;40776;52.880;6.016;2024-02-14T04:46:57;3.00;;;2.40;;
54883;SDS011;40776;52.880;6.016;2024-02-14T04:49:24;2.90;;;2.42;;
54883;SDS011;40776;52.880;6.016;2024-02-14T04:51:53;3.13;;;2.50;;
54883;SDS011;40776;52.880;6.016;2024-02-14T04:54:19;2.67;;;2.42;;
54883;SDS011;40776;52.880;6.016;2024-02-14T04:56:45;2.78;;;2.25;;
54883;SDS011;40776;52.880;6.016;2024-02-14T04:59:12;4.43;;;2.50;;
54883;SDS011;40776;52.880;6.016;2024-02-14T05:01:38;2.92;;;2.38;;
54883;SDS011;40776;52.880;6.016;2024-02-14T05:04:06;3.30;;;2.60;;
54883;SDS011;40776;52.880;6.016;2024-02-14T05:06:33;4.15;;;2.70;;
54883;SDS011;40776;52.880;6.016;2024-02-14T05:08:59;2.60;;;2.13;;
54883;SDS011;40776;52.880;6.016;2024-02-14T05:11:25;3.40;;;2.60;;
54883;SDS011;40776;52.880;6.016;2024-02-14T05:13:51;3.30;;;2.33;;
54883;SDS011;40776;52.880;6.016;2024-02-14T05:16:18;4.00;;;2.83;;
54883;SDS011;40776;52.880;6.016;2024-02-14T05:18:44;3.28;;;2.53;;
54883;SDS011;40776;52.880;6.016;2024-02-14T05:21:10;4.93;;;2.40;;
54883;SDS011;40776;52.880;6.016;2024-02-14T05:23:36;3.28;;;2.30;;
54883;SDS011;40776;52.880;6.016;2024-02-14T05:26:02;3.85;;;2.47;;
54883;SDS011;40776;52.880;6.016;2024-02-14T05:28:29;2.95;;;1.98;;
54883;SDS011;40776;52.880;6.016;2024-02-14T05:30:56;3.47;;;2.30;;
54883;SDS011;40776;52.880;6.016;2024-02-14T05:33:24;3.85;;;2.38;;
54883;SDS011;40776;52.880;6.016;2024-02-14T05:35:51;3.92;;;2.22;;
54883;SDS011;40776;52.880;6.016;2024-02-14T05:38:17;4.00;;;2.42;;
54883;SDS011;40776;52.880;6.016;2024-02-14T05:40:47;5.20;;;2.05;;
54883;SDS011;40776;52.880;6.016;2024-02-14T05:43:13;3.95;;;2.10;;
54883;SDS011;40776;52.880;6.016;2024-02-14T05:45:40;3.53;;;2.35;;
54883;SDS011;40776;52.880;6.016;2024-02-14T05:48:06;4.47;;;2.00;;
54883;SDS011;40776;52.880;6.016;2024-02-14T05:50:33;4.25;;;2.28;;
54883;SDS011;40776;52.880;6.016;2024-02-14T05:52:59;5.07;;;2.28;;
54883;SDS011;40776;52.880;6.016;2024-02-14T05:55:25;5.40;;;2.58;;
54883;SDS011;40776;52.880;6.016;2024-02-14T05:57:52;4.15;;;2.10;;
54883;SDS011;40776;52.880;6.016;2024-02-14T06:00:20;6.97;;;3.20;;
54883;SDS011;40776;52.880;6.016;2024-02-14T06:02:47;9.38;;;2.97;;
54883;SDS011;40776;52.880;6.016;2024-02-14T06:05:14;5.65;;;2.55;;
54883;SDS011;40776;52.880;6.016;2024-02-14T06:07:40;6.43;;;2.25;;
54883;SDS011;40776;52.880;6.016;2024-02-14T06:10:07;6.60;;;2.17;;
54883;SDS011;40776;52.880;6.016;2024-02-14T06:12:34;8.15;;;2.58;;
54883;SDS011;40776;52.880;6.016;2024-02-14T06:15:02;10.52;;;2.53;;
54883;SDS011;40776;52.880;6.016;2024-02-14T06:17:28;8.40;;;2.40;;
54883;SDS011;40776;52.880;6.016;2024-02-14T06:19:54;8.95;;;3.25;;
54883;SDS011;40776;52.880;6.016;2024-02-14T06:22:21;12.23;;;2.58;;
54883;SDS011;40776;52.880;6.016;2024-02-14T06:24:48;8.68;;;2.90;;
54883;SDS011;40776;52.880;6.016;2024-02-14T06:27:14;7.10;;;2.10;;
54883;SDS011;40776;52.880;6.016;2024-02-14T06:29:43;8.35;;;1.80;;
54883;SDS011;40776;52.880;6.016;2024-02-14T06:32:11;7.90;;;2.20;;
54883;SDS011;40776;52.880;6.016;2024-02-14T06:34:37;16.67;;;3.05;;
54883;SDS011;40776;52.880;6.016;2024-02-14T06:37:03;9.65;;;2.85;;
54883;SDS011;40776;52.880;6.016;2024-02-14T06:39:29;9.02;;;2.45;;
54883;SDS011;40776;52.880;6.016;2024-02-14T06:41:55;14.13;;;3.38;;
54883;SDS011;40776;52.880;6.016;2024-02-14T06:44:24;10.55;;;3.28;;
54883;SDS011;40776;52.880;6.016;2024-02-14T06:46:50;7.93;;;2.15;;
54883;SDS011;40776;52.880;6.016;2024-02-14T06:49:16;12.88;;;2.47;;
54883;SDS011;40776;52.880;6.016;2024-02-14T06:51:43;8.98;;;2.80;;
54883;SDS011;40776;52.880;6.016;2024-02-14T06:54:10;8.95;;;2.53;;
54883;SDS011;40776;52.880;6.016;2024-02-14T06:56:37;13.30;;;3.00;;
54883;SDS011;40776;52.880;6.016;2024-02-14T06:59:03;12.93;;;2.72;;
54883;SDS011;40776;52.880;6.016;2024-02-14T07:01:30;8.32;;;2.47;;
54883;SDS011;40776;52.880;6.016;2024-02-14T07:03:56;10.93;;;2.97;;
54883;SDS011;40776;52.880;6.016;2024-02-14T07:06:22;11.07;;;2.70;;
54883;SDS011;40776;52.880;6.016;2024-02-14T07:08:48;9.82;;;2.72;;
54883;SDS011;40776;52.880;6.016;2024-02-14T07:11:14;11.98;;;2.92;;
54883;SDS011;40776;52.880;6.016;2024-02-14T07:13:43;9.32;;;2.60;;
54883;SDS011;40776;52.880;6.016;2024-02-14T07:16:09;10.95;;;2.50;;
54883;SDS011;40776;52.880;6.016;2024-02-14T07:18:35;10.05;;;2.90;;
54883;SDS011;40776;52.880;6.016;2024-02-14T07:21:01;10.77;;;2.45;;
54883;SDS011;40776;52.880;6.016;2024-02-14T07:23:31;8.23;;;2.00;;
54883;SDS011;40776;52.880;6.016;2024-02-14T07:25:58;13.27;;;3.38;;
54883;SDS011;40776;52.880;6.016;2024-02-14T07:28:24;7.72;;;2.42;;
54883;SDS011;40776;52.880;6.016;2024-02-14T07:30:50;13.13;;;2.78;;
54883;SDS011;40776;52.880;6.016;2024-02-14T07:33:16;13.65;;;2.83;;
54883;SDS011;40776;52.880;6.016;2024-02-14T07:35:42;10.35;;;2.33;;
54883;SDS011;40776;52.880;6.016;2024-02-14T07:38:08;8.80;;;2.30;;
54883;SDS011;40776;52.880;6.016;2024-02-14T07:40:34;9.75;;;2.53;;
54883;SDS011;40776;52.880;6.016;2024-02-14T07:43:00;8.85;;;2.30;;
54883;SDS011;40776;52.880;6.016;2024-02-14T07:45:27;11.63;;;2.80;;
54883;SDS011;40776;52.880;6.016;2024-02-14T07:47:53;9.10;;;3.03;;
54883;SDS011;40776;52.880;6.016;2024-02-14T07:50:19;13.13;;;2.38;;
54883;SDS011;40776;52.880;6.016;2024-02-14T07:52:46;12.27;;;2.47;;
54883;SDS011;40776;52.880;6.016;2024-02-14T07:55:12;11.27;;;2.47;;
54883;SDS011;40776;52.880;6.016;2024-02-14T07:57:39;10.82;;;2.60;;
54883;SDS011;40776;52.880;6.016;2024-02-14T08:00:05;7.07;;;2.60;;
54883;SDS011;40776;52.880;6.016;2024-02-14T08:02:35;10.30;;;2.72;;
54883;SDS011;40776;52.880;6.016;2024-02-14T08:05:02;9.27;;;2.28;;
54883;SDS011;40776;52.880;6.016;2024-02-14T08:07:30;10.52;;;2.20;;
54883;SDS011;40776;52.880;6.016;2024-02-14T08:09:56;11.88;;;2.38;;
54883;SDS011;40776;52.880;6.016;2024-02-14T08:12:22;10.85;;;2.47;;
54883;SDS011;40776;52.880;6.016;2024-02-14T08:14:50;12.32;;;2.47;;
54883;SDS011;40776;52.880;6.016;2024-02-14T08:17:16;8.25;;;2.47;;
54883;SDS011;40776;52.880;6.016;2024-02-14T08:19:42;9.85;;;2.30;;
54883;SDS011;40776;52.880;6.016;2024-02-14T08:22:08;8.05;;;2.47;;
54883;SDS011;40776;52.880;6.016;2024-02-14T08:24:34;8.63;;;2.33;;
54883;SDS011;40776;52.880;6.016;2024-02-14T08:27:00;9.40;;;2.20;;
54883;SDS011;40776;52.880;6.016;2024-02-14T08:29:26;8.18;;;2.10;;
54883;SDS011;40776;52.880;6.016;2024-02-14T08:31:52;8.93;;;2.38;;
54883;SDS011;40776;52.880;6.016;2024-02-14T08:34:18;13.57;;;2.50;;
54883;SDS011;40776;52.880;6.016;2024-02-14T08:36:44;7.65;;;2.55;;
54883;SDS011;40776;52.880;6.016;2024-02-14T08:39:10;7.22;;;2.10;;
54883;SDS011;40776;52.880;6.016;2024-02-14T08:41:37;12.40;;;3.47;;
54883;SDS011;40776;52.880;6.016;2024-02-14T08:44:03;11.77;;;3.22;;
54883;SDS011;40776;52.880;6.016;2024-02-14T08:46:30;11.32;;;2.88;;
54883;SDS011;40776;52.880;6.016;2024-02-14T08:48:56;13.23;;;2.85;;
54883;SDS011;40776;52.880;6.016;2024-02-14T08:51:22;10.43;;;2.30;;
54883;SDS011;40776;52.880;6.016;2024-02-14T08:53:48;9.27;;;2.50;;
54883;SDS011;40776;52.880;6.016;2024-02-14T08:56:19;8.80;;;2.35;;
54883;SDS011;40776;52.880;6.016;2024-02-14T08:58:47;9.68;;;3.15;;
54883;SDS011;40776;52.880;6.016;2024-02-14T09:01:13;9.32;;;2.28;;
54883;SDS011;40776;52.880;6.016;2024-02-14T09:03:39;8.80;;;2.35;;
54883;SDS011;40776;52.880;6.016;2024-02-14T09:06:08;5.60;;;2.47;;
54883;SDS011;40776;52.880;6.016;2024-02-14T09:08:34;8.73;;;2.22;;
54883;SDS011;40776;52.880;6.016;2024-02-14T09:11:00;9.77;;;1.80;;
54883;SDS011;40776;52.880;6.016;2024-02-14T09:13:26;8.85;;;2.00;;
54883;SDS011;40776;52.880;6.016;2024-02-14T09:15:52;5.40;;;1.90;;
54883;SDS011;40776;52.880;6.016;2024-02-14T09:18:19;9.88;;;2.75;;
54883;SDS011;40776;52.880;6.016;2024-02-14T09:20:45;9.98;;;2.95;;
54883;SDS011;40776;52.880;6.016;2024-02-14T09:23:12;14.43;;;2.90;;
54883;SDS011;40776;52.880;6.016;2024-02-14T09:25:39;10.57;;;2.28;;
54883;SDS011;40776;52.880;6.016;2024-02-14T09:28:05;11.38;;;2.33;;
54883;SDS011;40776;52.880;6.016;2024-02-14T09:30:32;7.72;;;3.17;;
54883;SDS011;40776;52.880;6.016;2024-02-14T09:32:58;7.05;;;2.20;;
54883;SDS011;40776;52.880;6.016;2024-02-14T09:35:24;7.88;;;3.30;;
54883;SDS011;40776;52.880;6.016;2024-02-14T09:37:50;7.50;;;2.78;;
54883;SDS011;40776;52.880;6.016;2024-02-14T09:40:16;10.10;;;3.00;;
54883;SDS011;40776;52.880;6.016;2024-02-14T09:42:50;9.40;;;2.88;;
54883;SDS011;40776;52.880;6.016;2024-02-14T09:45:18;7.05;;;2.40;;
54883;SDS011;40776;52.880;6.016;2024-02-14T09:47:45;7.65;;;2.30;;
54883;SDS011;40776;52.880;6.016;2024-02-14T09:50:11;5.82;;;2.53;;
54883;SDS011;40776;52.880;6.016;2024-02-14T09:52:38;10.73;;;2.85;;
54883;SDS011;40776;52.880;6.016;2024-02-14T09:55:05;7.35;;;2.47;;
54883;SDS011;40776;52.880;6.016;2024-02-14T09:57:32;7.68;;;2.53;;
54883;SDS011;40776;52.880;6.016;2024-02-14T09:59:58;5.45;;;2.30;;
54883;SDS011;40776;52.880;6.016;2024-02-14T10:02:27;6.43;;;2.40;;
54883;SDS011;40776;52.880;6.016;2024-02-14T10:04:53;6.82;;;2.75;;
54883;SDS011;40776;52.880;6.016;2024-02-14T10:07:19;7.63;;;2.90;;
54883;SDS011;40776;52.880;6.016;2024-02-14T10:09:45;10.07;;;3.78;;
54883;SDS011;40776;52.880;6.016;2024-02-14T10:12:14;8.32;;;3.30;;
54883;SDS011;40776;52.880;6.016;2024-02-14T10:14:40;7.68;;;3.55;;
54883;SDS011;40776;52.880;6.016;2024-02-14T10:17:07;7.07;;;2.75;;
54883;SDS011;40776;52.880;6.016;2024-02-14T10:19:35;6.05;;;2.97;;
54883;SDS011;40776;52.880;6.016;2024-02-14T10:22:01;21.65;;;4.93;;
54883;SDS011;40776;52.880;6.016;2024-02-14T10:24:28;13.05;;;4.82;;
54883;SDS011;40776;52.880;6.016;2024-02-14T10:26:56;17.50;;;5.45;;
54883;SDS011;40776;52.880;6.016;2024-02-14T10:29:22;18.40;;;6.57;;
54883;SDS011;40776;52.880;6.016;2024-02-14T10:31:49;14.60;;;5.75;;
54883;SDS011;40776;52.880;6.016;2024-02-14T10:34:16;18.63;;;7.43;;
54883;SDS011;40776;52.880;6.016;2024-02-14T10:36:42;27.70;;;11.02;;
54883;SDS011;40776;52.880;6.016;2024-02-14T10:39:10;24.70;;;11.85;;
54883;SDS011;40776;52.880;6.016;2024-02-14T10:41:37;24.73;;;11.93;;
54883;SDS011;40776;52.880;6.016;2024-02-14T10:44:03;22.05;;;10.07;;
54883;SDS011;40776;52.880;6.016;2024-02-14T10:46:31;27.70;;;12.30;;
54883;SDS011;40776;52.880;6.016;2024-02-14T10:49:02;27.00;;;13.85;;
54883;SDS011;40776;52.880;6.016;2024-02-14T10:51:30;28.90;;;15.25;;
54883;SDS011;40776;52.880;6.016;2024-02-14T10:53:57;36.15;;;19.15;;
54883;SDS011;40776;52.880;6.016;2024-02-14T10:56:27;48.78;;;23.35;;
54883;SDS011;40776;52.880;6.016;2024-02-14T10:58:55;50.17;;;25.35;;
54883;SDS011;40776;52.880;6.016;2024-02-14T11:01:25;50.83;;;25.30;;
54883;SDS011;40776;52.880;6.016;2024-02-14T11:03:59;53.22;;;27.42;;
54883;SDS011;40776;52.880;6.016;2024-02-14T11:06:27;49.20;;;25.63;;
54883;SDS011;40776;52.880;6.016;2024-02-14T11:09:00;43.05;;;23.23;;
54883;SDS011;40776;52.880;6.016;2024-02-14T11:11:29;42.73;;;23.23;;
54883;SDS011;40776;52.880;6.016;2024-02-14T11:13:56;51.13;;;23.38;;
54883;SDS011;40776;52.880;6.016;2024-02-14T11:16:23;42.88;;;22.88;;
54883;SDS011;40776;52.880;6.016;2024-02-14T11:18:53;38.88;;;20.45;;
54883;SDS011;40776;52.880;6.016;2024-02-14T11:21:19;43.63;;;21.45;;
54883;SDS011;40776;52.880;6.016;2024-02-14T11:23:54;38.63;;;20.05;;
54883;SDS011;40776;52.880;6.016;2024-02-14T11:26:20;38.72;;;20.10;;
54883;SDS011;40776;52.880;6.016;2024-02-14T11:28:48;34.80;;;18.45;;
54883;SDS011;40776;52.880;6.016;2024-02-14T11:31:16;36.13;;;19.20;;
54883;SDS011;40776;52.880;6.016;2024-02-14T11:33:43;32.85;;;18.42;;
54883;SDS011;40776;52.880;6.016;2024-02-14T11:36:11;32.30;;;19.25;;
54883;SDS011;40776;52.880;6.016;2024-02-14T11:38:40;35.80;;;19.02;;
54883;SDS011;40776;52.880;6.016;2024-02-14T11:41:06;34.97;;;17.80;;
54883;SDS011;40776;52.880;6.016;2024-02-14T11:43:32;31.02;;;17.60;;
54883;SDS011;40776;52.880;6.016;2024-02-14T11:45:58;30.42;;;15.43;;
54883;SDS011;40776;52.880;6.016;2024-02-14T11:48:24;27.05;;;15.30;;
54883;SDS011;40776;52.880;6.016;2024-02-14T11:50:51;30.85;;;16.42;;
54883;SDS011;40776;52.880;6.016;2024-02-14T11:53:17;27.50;;;15.00;;
54883;SDS011;40776;52.880;6.016;2024-02-14T11:55:46;26.67;;;14.63;;
54883;SDS011;40776;52.880;6.016;2024-02-14T11:58:14;23.75;;;13.35;;
54883;SDS011;40776;52.880;6.016;2024-02-14T12:00:41;26.40;;;14.27;;
54883;SDS011;40776;52.880;6.016;2024-02-14T12:03:23;23.33;;;13.35;;
54883;SDS011;40776;52.880;6.016;2024-02-14T12:05:53;23.13;;;13.30;;
54883;SDS011;40776;52.880;6.016;2024-02-14T12:08:19;24.65;;;13.20;;
54883;SDS011;40776;52.880;6.016;2024-02-14T12:10:48;23.13;;;12.88;;
54883;SDS011;40776;52.880;6.016;2024-02-14T12:13:15;24.02;;;12.45;;
54883;SDS011;40776;52.880;6.016;2024-02-14T12:15:45;21.35;;;12.00;;
54883;SDS011;40776;52.880;6.016;2024-02-14T12:18:11;22.60;;;12.32;;
54883;SDS011;40776;52.880;6.016;2024-02-14T12:20:38;25.65;;;12.05;;
54883;SDS011;40776;52.880;6.016;2024-02-14T12:23:05;22.33;;;10.90;;
54883;SDS011;40776;52.880;6.016;2024-02-14T12:25:32;18.50;;;11.02;;
54883;SDS011;40776;52.880;6.016;2024-02-14T12:27:58;18.65;;;10.65;;
54883;SDS011;40776;52.880;6.016;2024-02-14T12:33:11;23.30;;;11.75;;
54883;SDS011;40776;52.880;6.016;2024-02-14T12:35:39;20.63;;;9.82;;
54883;SDS011;40776;52.880;6.016;2024-02-14T12:38:08;20.35;;;9.50;;
54883;SDS011;40776;52.880;6.016;2024-02-14T12:40:37;15.85;;;9.63;;
54883;SDS011;40776;52.880;6.016;2024-02-14T12:43:06;18.02;;;9.23;;
54883;SDS011;40776;52.880;6.016;2024-02-14T12:45:32;14.75;;;8.75;;
54883;SDS011;40776;52.880;6.016;2024-02-14T12:47:59;15.05;;;8.98;;
54883;SDS011;40776;52.880;6.016;2024-02-14T12:50:25;17.05;;;9.45;;
54883;SDS011;40776;52.880;6.016;2024-02-14T12:52:51;17.88;;;9.07;;
54883;SDS011;40776;52.880;6.016;2024-02-14T12:55:17;16.48;;;8.68;;
54883;SDS011;40776;52.880;6.016;2024-02-14T12:57:44;12.45;;;7.38;;
54883;SDS011;40776;52.880;6.016;2024-02-14T13:00:10;13.23;;;8.25;;
54883;SDS011;40776;52.880;6.016;2024-02-14T13:02:36;14.45;;;8.43;;
54883;SDS011;40776;52.880;6.016;2024-02-14T13:05:06;13.95;;;8.73;;
54883;SDS011;40776;52.880;6.016;2024-02-14T13:07:32;17.30;;;7.50;;
54883;SDS011;40776;52.880;6.016;2024-02-14T13:10:00;11.40;;;7.78;;
54883;SDS011;40776;52.880;6.016;2024-02-14T13:12:26;15.75;;;7.47;;
54883;SDS011;40776;52.880;6.016;2024-02-14T13:14:52;15.02;;;7.47;;
54883;SDS011;40776;52.880;6.016;2024-02-14T13:17:18;10.48;;;7.53;;
54883;SDS011;40776;52.880;6.016;2024-02-14T13:19:44;10.25;;;7.05;;
54883;SDS011;40776;52.880;6.016;2024-02-14T13:22:11;10.48;;;7.13;;
54883;SDS011;40776;52.880;6.016;2024-02-14T13:24:37;14.00;;;7.32;;
54883;SDS011;40776;52.880;6.016;2024-02-14T13:27:03;10.80;;;6.35;;
54883;SDS011;40776;52.880;6.016;2024-02-14T13:29:29;13.43;;;7.10;;
54883;SDS011;40776;52.880;6.016;2024-02-14T13:31:55;11.13;;;6.72;;
54883;SDS011;40776;52.880;6.016;2024-02-14T13:34:21;11.98;;;6.40;;
54883;SDS011;40776;52.880;6.016;2024-02-14T13:36:47;10.75;;;7.68;;
54883;SDS011;40776;52.880;6.016;2024-02-14T13:39:14;12.77;;;7.72;;
54883;SDS011;40776;52.880;6.016;2024-02-14T13:41:40;18.38;;;7.97;;
54883;SDS011;40776;52.880;6.016;2024-02-14T13:44:10;11.43;;;7.83;;
54883;SDS011;40776;52.880;6.016;2024-02-14T13:46:36;13.10;;;7.25;;
54883;SDS011;40776;52.880;6.016;2024-02-14T13:49:02;11.75;;;6.80;;
54883;SDS011;40776;52.880;6.016;2024-02-14T13:51:29;10.13;;;6.88;;
54883;SDS011;40776;52.880;6.016;2024-02-14T13:53:55;13.68;;;6.00;;
54883;SDS011;40776;52.880;6.016;2024-02-14T13:56:21;10.98;;;7.45;;
54883;SDS011;40776;52.880;6.016;2024-02-14T13:58:48;12.38;;;6.22;;
54883;SDS011;40776;52.880;6.016;2024-02-14T14:01:14;10.77;;;5.88;;
54883;SDS011;40776;52.880;6.016;2024-02-14T14:03:43;7.60;;;5.38;;
54883;SDS011;40776;52.880;6.016;2024-02-14T14:06:09;9.57;;;6.63;;
54883;SDS011;40776;52.880;6.016;2024-02-14T14:08:35;11.90;;;6.97;;
54883;SDS011;40776;52.880;6.016;2024-02-14T14:11:04;10.68;;;6.40;;
54883;SDS011;40776;52.880;6.016;2024-02-14T14:13:30;7.50;;;5.70;;
54883;SDS011;40776;52.880;6.016;2024-02-14T14:16:01;8.20;;;5.78;;
54883;SDS011;40776;52.880;6.016;2024-02-14T14:18:30;37.65;;;9.15;;
54883;SDS011;40776;52.880;6.016;2024-02-14T14:20:57;73.13;;;10.35;;
54883;SDS011;40776;52.880;6.016;2024-02-14T14:23:23;82.05;;;10.95;;
54883;SDS011;40776;52.880;6.016;2024-02-14T14:25:49;67.07;;;10.82;;
54883;SDS011;40776;52.880;6.016;2024-02-14T14:28:17;61.83;;;8.93;;
54883;SDS011;40776;52.880;6.016;2024-02-14T14:30:49;54.35;;;10.77;;
54883;SDS011;40776;52.880;6.016;2024-02-14T14:33:15;57.63;;;9.60;;
54883;SDS011;40776;52.880;6.016;2024-02-14T14:35:42;54.17;;;9.93;;
54883;SDS011;40776;52.880;6.016;2024-02-14T14:38:08;45.88;;;8.48;;
54883;SDS011;40776;52.880;6.016;2024-02-14T14:40:34;46.88;;;8.68;;